»·PEaware :: N5954W KMYF-KNZY

N5954W :: KMYF-KNZY

FLIGHT INFORMATION

Flight Status: Arrived
Operator: Privately registered:
United States
More flights under this callsign
Pilot: Joshua M. (19482)
Aircraft: BEECH AIRCRAFT BARON
(BE58)
More flights by this aircraft type
Origin: KMYF Montgomery
United States
Destination: KNZY North Island NAS
United States
More flights between these airports :: More routes between these airports
Route: +MZB
File this flight plan on PilotEdge
Remarks: LOC / DME A
Altitude:
(Current/Filed)
4,000ft
Speed:
(Current/Filed)
150kts
Departed: 10-Jul-18 08:05 PM
Arrived: 10-Jul-18 08:59 PM
Distance/Time
Traveled:
8nm/0:54
Distance/Time
To Go:
Arrived

Flight Plot

Page will automatically refresh every two minutes.

Flight plan parsing failed; only flown route is shown


Map Options




Map Legend


Flown Route
Filed Route
Departure Airport
Arrival Airport
Navaid (VOR, NDB)
Fix

Horizontal Profiles

Position Reports

Time Latitude Longitude Heading Altitude Ground
Speed
10-Jul-18 19:54 32.813881 -117.144470 240 427ft 0kts
10-Jul-18 19:55 32.813881 -117.144470 240 427ft 0kts
10-Jul-18 19:56 32.813881 -117.144470 240 427ft 0kts
10-Jul-18 19:57 32.813881 -117.144470 240 427ft 0kts
10-Jul-18 19:58 32.813806 -117.144462 114 427ft 0kts
10-Jul-18 19:59 32.813806 -117.144462 114 427ft 0kts
10-Jul-18 20:00 32.813806 -117.144461 113 427ft 0kts
10-Jul-18 20:01 32.814018 -117.144327 50 427ft 1kts
10-Jul-18 20:02 32.814850 -117.143267 64 427ft 10kts
10-Jul-18 20:03 32.814093 -117.140092 115 427ft 15kts
10-Jul-18 20:04 32.812236 -117.135328 117 427ft 16kts
10-Jul-18 20:05 32.811689 -117.131806 51 427ft 13kts
10-Jul-18 20:06 32.813671 -117.133280 294 427ft 57kts
10-Jul-18 20:07 32.823169 -117.170053 280 680ft 152kts
10-Jul-18 20:08 32.831383 -117.220439 280 1421ft 159kts
10-Jul-18 20:09 32.839688 -117.271454 280 2181ft 159kts
10-Jul-18 20:10 32.847476 -117.319892 280 2876ft 159kts
10-Jul-18 20:11 32.841313 -117.358321 200 3421ft 164kts
10-Jul-18 20:12 32.809590 -117.325009 122 3990ft 172kts
10-Jul-18 20:13 32.803159 -117.266861 90 3979ft 188kts
10-Jul-18 20:14 32.802010 -117.205299 90 3978ft 190kts
10-Jul-18 20:15 32.790310 -117.133404 101 3978ft 190kts
10-Jul-18 20:16 32.779435 -117.071789 101 3978ft 190kts
10-Jul-18 20:17 32.768623 -117.010465 101 3978ft 190kts
10-Jul-18 20:18 32.759583 -116.959137 101 3978ft 190kts
10-Jul-18 20:19 32.748848 -116.898121 101 3978ft 190kts
10-Jul-18 20:20 32.717621 -116.859774 179 3982ft 187kts
10-Jul-18 20:21 32.669559 -116.876261 212 3979ft 185kts
10-Jul-18 20:22 32.661455 -116.920479 302 3974ft 157kts
10-Jul-18 20:23 32.677647 -116.963063 289 3884ft 116kts
10-Jul-18 20:24 32.687468 -117.000702 286 3208ft 123kts
10-Jul-18 20:25 32.696905 -117.038901 286 2577ft 114kts
10-Jul-18 20:26 32.705371 -117.074030 285 1768ft 111kts
10-Jul-18 20:27 32.713948 -117.109038 285 1105ft 111kts
10-Jul-18 20:28 32.721913 -117.141742 285 728ft 95kts
10-Jul-18 20:29 32.738024 -117.168887 321 990ft 121kts
10-Jul-18 20:30 32.766641 -117.194563 321 1912ft 143kts
10-Jul-18 20:32 32.829156 -117.251430 321 3950ft 144kts
10-Jul-18 20:33 32.860696 -117.280559 321 4918ft 143kts
10-Jul-18 20:34 32.895971 -117.313381 321 4995ft 174kts
10-Jul-18 20:35 32.935236 -117.348848 306 4978ft 179kts
10-Jul-18 20:36 32.906606 -117.379758 181 4993ft 187kts
10-Jul-18 20:37 32.855412 -117.375386 142 4986ft 189kts
10-Jul-18 20:38 32.840062 -117.316850 101 4991ft 189kts
10-Jul-18 20:39 32.829040 -117.255807 101 4991ft 189kts
10-Jul-18 20:40 32.818030 -117.194770 101 4991ft 189kts
10-Jul-18 20:41 32.807008 -117.133590 101 4991ft 189kts
10-Jul-18 20:42 32.795963 -117.072223 101 4991ft 189kts
10-Jul-18 20:43 32.784941 -117.010914 101 4991ft 189kts
10-Jul-18 20:44 32.773998 -116.949972 101 4991ft 189kts
10-Jul-18 20:45 32.763816 -116.893353 101 4987ft 161kts
10-Jul-18 20:46 32.737474 -116.854842 141 4991ft 153kts
10-Jul-18 20:47 32.704416 -116.823247 141 4991ft 152kts
10-Jul-18 20:48 32.668702 -116.804671 200 4996ft 147kts
10-Jul-18 20:49 32.635138 -116.819295 202 4992ft 148kts
10-Jul-18 20:50 32.607966 -116.853875 270 4994ft 142kts
10-Jul-18 20:51 32.608602 -116.901345 272 5001ft 154kts
10-Jul-18 20:52 32.609869 -116.957404 272 4994ft 178kts
10-Jul-18 20:53 32.602377 -117.016104 256 4856ft 186kts
10-Jul-18 20:54 32.589176 -117.076824 256 4459ft 193kts
10-Jul-18 20:55 32.591813 -117.132840 335 3880ft 172kts
10-Jul-18 20:56 32.631725 -117.147754 341 2550ft 127kts
10-Jul-18 20:57 32.662578 -117.162808 336 858ft 117kts
10-Jul-18 20:58 32.684344 -117.187019 297 129ft 102kts
10-Jul-18 20:59 32.697188 -117.211401 300 27ft 69kts
10-Jul-18 21:00 32.700294 -117.213409 0 27ft 12kts
10-Jul-18 21:01 32.701488 -117.213354 281 27ft 0kts
10-Jul-18 21:02 32.701488 -117.213354 281 27ft 0kts
10-Jul-18 21:03 32.701488 -117.213354 281 27ft 0kts
10-Jul-18 21:04 32.701488 -117.213354 281 27ft 0kts
10-Jul-18 21:05 32.701488 -117.213354 281 27ft 0kts
10-Jul-18 21:06 32.701488 -117.213354 280 27ft 0kts
10-Jul-18 21:07 32.701488 -117.213354 281 27ft 0kts

Navigation Log

Ident Type
Flight plan parsing failed, navigation log unavailable